createdAt,value
2022-11-13T00:01:11.594Z,14.50
2022-11-13T00:03:39.485Z,14.50
2022-11-13T00:06:07.729Z,14.50
2022-11-13T00:08:35.630Z,14.50
2022-11-13T00:11:04.770Z,14.50
2022-11-13T00:13:33.001Z,14.50
2022-11-13T00:16:02.718Z,14.50
2022-11-13T00:18:32.333Z,14.50
2022-11-13T00:21:05.638Z,14.50
2022-11-13T00:23:34.696Z,14.50
2022-11-13T00:26:05.904Z,14.50
2022-11-13T00:28:33.859Z,14.50
2022-11-13T00:31:01.744Z,14.50
2022-11-13T00:34:02.007Z,14.50
2022-11-13T00:36:25.781Z,14.50
2022-11-13T00:38:54.540Z,14.50
2022-11-13T00:41:22.497Z,14.50
2022-11-13T00:43:50.392Z,14.50
2022-11-13T00:46:18.267Z,14.50
2022-11-13T00:48:47.464Z,14.50
2022-11-13T00:51:15.465Z,14.50
2022-11-13T00:53:43.447Z,14.50
2022-11-13T00:56:12.437Z,14.50
2022-11-13T00:58:40.239Z,14.50
2022-11-13T01:01:09.825Z,14.50
2022-11-13T01:03:38.215Z,14.50
2022-11-13T01:06:13.387Z,14.50
2022-11-13T01:08:41.332Z,14.50
2022-11-13T01:11:10.900Z,14.50
2022-11-13T01:13:38.872Z,14.50
2022-11-13T01:16:08.847Z,14.40
2022-11-13T01:18:36.899Z,14.50
2022-11-13T01:21:06.303Z,14.50
2022-11-13T01:23:36.386Z,14.50
2022-11-13T01:26:09.987Z,14.50
2022-11-13T01:28:38.203Z,14.50
2022-11-13T01:31:07.428Z,14.50
2022-11-13T01:33:36.010Z,14.50
2022-11-13T01:36:05.772Z,14.50
2022-11-13T01:38:36.859Z,14.50
2022-11-13T01:41:06.095Z,14.50
2022-11-13T01:43:35.379Z,14.40
2022-11-13T01:46:28.566Z,14.50
2022-11-13T01:49:13.449Z,14.40
2022-11-13T01:51:46.306Z,14.40
2022-11-13T01:54:19.188Z,14.50
2022-11-13T01:56:47.142Z,14.40
2022-11-13T01:59:18.518Z,14.50
2022-11-13T02:01:46.915Z,14.40
2022-11-13T02:04:15.055Z,14.50
2022-11-13T02:06:46.138Z,14.40
2022-11-13T02:09:17.087Z,14.40
2022-11-13T02:11:45.516Z,14.40
2022-11-13T02:14:14.604Z,14.40
2022-11-13T02:16:44.122Z,14.40
2022-11-13T02:19:17.929Z,14.40
2022-11-13T02:21:51.707Z,14.40
2022-11-13T02:24:28.407Z,14.40
2022-11-13T02:27:00.998Z,14.40
2022-11-13T02:29:28.860Z,14.40
2022-11-13T02:31:56.788Z,14.40
2022-11-13T02:34:24.854Z,14.40
2022-11-13T02:36:52.675Z,14.40
2022-11-13T02:39:20.526Z,14.40
2022-11-13T02:41:49.725Z,14.40
2022-11-13T02:44:17.551Z,14.40
2022-11-13T02:46:45.407Z,14.40
2022-11-13T02:49:13.317Z,14.40
2022-11-13T02:51:41.146Z,14.40
2022-11-13T02:54:14.164Z,14.40
2022-11-13T02:56:44.543Z,14.40
2022-11-13T02:59:13.709Z,14.40
2022-11-13T03:01:41.620Z,14.40
2022-11-13T03:04:09.472Z,14.40
2022-11-13T03:06:37.302Z,14.40
2022-11-13T03:09:05.183Z,14.40
2022-11-13T03:11:33.002Z,14.40
2022-11-13T03:14:00.840Z,14.40
2022-11-13T03:16:30.000Z,14.40
2022-11-13T03:18:58.266Z,14.40
2022-11-13T03:21:26.120Z,14.40
2022-11-13T03:23:55.298Z,14.40
2022-11-13T03:26:23.627Z,14.40
2022-11-13T03:28:51.653Z,14.40
2022-11-13T03:31:19.478Z,14.40
2022-11-13T03:33:48.782Z,14.40
2022-11-13T03:36:16.591Z,14.30
2022-11-13T03:38:44.408Z,14.40
2022-11-13T03:41:14.794Z,14.40
2022-11-13T03:43:42.669Z,14.30
2022-11-13T03:46:10.953Z,14.30
2022-11-13T03:48:38.808Z,14.30
2022-11-13T03:51:08.569Z,14.40
2022-11-13T03:53:36.396Z,14.40
2022-11-13T03:56:04.339Z,14.40
2022-11-13T03:58:32.178Z,14.40
2022-11-13T04:01:00.032Z,14.40
2022-11-13T04:03:27.837Z,14.40
2022-11-13T04:05:55.653Z,14.40
2022-11-13T04:08:25.154Z,14.30
2022-11-13T04:10:53.154Z,14.30
2022-11-13T04:13:20.989Z,14.30
2022-11-13T04:15:48.862Z,14.30
2022-11-13T04:18:16.679Z,14.30
2022-11-13T04:20:44.525Z,14.30
2022-11-13T04:23:14.275Z,14.30
2022-11-13T04:25:43.446Z,14.30
2022-11-13T04:28:11.484Z,14.30
2022-11-13T04:30:39.327Z,14.30
2022-11-13T04:33:07.594Z,14.30
2022-11-13T04:35:35.621Z,14.30
2022-11-13T04:38:03.455Z,14.30
2022-11-13T04:40:31.311Z,14.30
2022-11-13T04:42:59.558Z,14.30
2022-11-13T04:45:27.732Z,14.30
2022-11-13T04:47:55.756Z,14.30
2022-11-13T04:50:23.782Z,14.30
2022-11-13T04:52:51.593Z,14.30
2022-11-13T04:55:19.479Z,14.30
2022-11-13T04:57:47.300Z,14.30
2022-11-13T05:00:17.746Z,14.30
2022-11-13T05:02:45.585Z,14.30
2022-11-13T05:05:13.446Z,14.30
2022-11-13T05:07:42.521Z,14.30
2022-11-13T05:10:10.910Z,14.30
2022-11-13T05:12:38.735Z,14.30
2022-11-13T05:15:07.819Z,14.30
2022-11-13T05:17:36.999Z,14.30
2022-11-13T05:20:05.412Z,14.30
2022-11-13T05:22:33.249Z,14.30
2022-11-13T05:25:01.066Z,14.30
2022-11-13T05:27:28.884Z,14.30
2022-11-13T05:29:56.704Z,14.30
2022-11-13T05:32:24.542Z,14.30
2022-11-13T05:34:53.728Z,14.30
2022-11-13T05:37:21.516Z,14.30
2022-11-13T05:39:49.338Z,14.20
2022-11-13T05:42:17.210Z,14.20
2022-11-13T05:44:45.050Z,14.20
2022-11-13T05:47:12.852Z,14.20
2022-11-13T05:49:40.672Z,14.20
2022-11-13T05:52:09.845Z,14.30
2022-11-13T05:54:37.667Z,14.20
2022-11-13T05:57:05.564Z,14.20
2022-11-13T05:59:33.377Z,14.20
2022-11-13T06:02:01.300Z,14.20
2022-11-13T06:04:29.223Z,14.20
2022-11-13T06:06:57.082Z,14.20
2022-11-13T06:09:26.260Z,14.20
2022-11-13T06:11:54.077Z,14.20
2022-11-13T06:14:21.902Z,14.20
2022-11-13T06:16:49.722Z,14.20
2022-11-13T06:19:17.549Z,14.20
2022-11-13T06:21:45.407Z,14.20
2022-11-13T06:24:13.787Z,14.20
2022-11-13T06:26:43.141Z,14.20
2022-11-13T06:29:13.297Z,14.20
2022-11-13T06:31:41.145Z,14.20
2022-11-13T06:34:09.251Z,14.20
2022-11-13T06:36:38.499Z,14.20
2022-11-13T06:39:10.849Z,14.20
2022-11-13T06:41:39.906Z,14.20
2022-11-13T06:44:09.255Z,14.20
2022-11-13T06:46:37.270Z,14.20
2022-11-13T06:49:05.142Z,14.20
2022-11-13T06:51:33.545Z,14.20
2022-11-13T06:54:01.384Z,14.20
2022-11-13T06:56:29.242Z,14.20
2022-11-13T06:58:57.132Z,14.20
2022-11-13T07:01:27.390Z,14.20
2022-11-13T07:03:55.557Z,14.20
2022-11-13T07:06:25.230Z,14.20
2022-11-13T07:08:53.620Z,14.20
2022-11-13T07:11:22.972Z,14.20
2022-11-13T07:13:51.512Z,14.20
2022-11-13T07:16:19.725Z,14.20
2022-11-13T07:18:53.060Z,14.20
2022-11-13T07:21:22.075Z,14.20
2022-11-13T07:23:50.457Z,14.20
2022-11-13T07:26:18.836Z,14.20
2022-11-13T07:28:46.888Z,14.20
2022-11-13T07:31:16.374Z,14.20
2022-11-13T07:33:44.571Z,14.10
2022-11-13T07:36:13.723Z,14.10
2022-11-13T07:38:41.579Z,14.10
2022-11-13T07:41:09.574Z,14.10
2022-11-13T07:43:37.380Z,14.10
2022-11-13T07:46:05.480Z,14.10
2022-11-13T07:48:33.320Z,14.10
2022-11-13T07:51:02.349Z,14.10
2022-11-13T07:53:31.985Z,14.10
2022-11-13T07:56:02.731Z,14.10
2022-11-13T07:58:31.336Z,14.10
2022-11-13T08:01:03.227Z,14.10
2022-11-13T08:03:31.463Z,14.10
2022-11-13T08:06:03.395Z,14.10
2022-11-13T08:08:32.772Z,14.10
2022-11-13T08:11:03.730Z,14.10
2022-11-13T08:13:31.545Z,14.10
2022-11-13T08:16:00.705Z,14.10
2022-11-13T08:18:29.401Z,14.10
2022-11-13T08:20:57.764Z,14.10
2022-11-13T08:23:25.610Z,14.10
2022-11-13T08:25:54.787Z,14.10
2022-11-13T08:28:22.600Z,14.10
2022-11-13T08:30:50.515Z,14.10
2022-11-13T08:33:18.332Z,14.10
2022-11-13T08:35:53.725Z,14.10
2022-11-13T08:38:21.772Z,14.10
2022-11-13T08:40:50.032Z,14.10
2022-11-13T08:43:19.598Z,14.10
2022-11-13T08:45:48.048Z,14.10
2022-11-13T08:48:16.151Z,14.10
2022-11-13T08:50:44.027Z,14.10
2022-11-13T08:53:12.199Z,14.10
2022-11-13T08:55:40.036Z,14.10
2022-11-13T08:58:07.850Z,14.00
2022-11-13T09:00:37.031Z,14.10
2022-11-13T09:03:04.994Z,14.00
2022-11-13T09:05:32.962Z,14.00
2022-11-13T09:08:02.576Z,14.10
2022-11-13T09:10:30.709Z,14.10
2022-11-13T09:12:59.233Z,14.00
2022-11-13T09:15:27.281Z,14.10
2022-11-13T09:17:58.765Z,14.00
2022-11-13T09:20:27.253Z,14.10
2022-11-13T09:22:59.380Z,14.10
2022-11-13T09:25:30.350Z,14.10
2022-11-13T09:28:03.029Z,14.10
2022-11-13T09:30:31.292Z,14.10
2022-11-13T09:33:01.747Z,14.10
2022-11-13T09:35:36.667Z,14.10
2022-11-13T09:38:10.988Z,14.00
2022-11-13T09:40:43.526Z,14.10
2022-11-13T09:43:29.833Z,14.00
2022-11-13T09:46:02.138Z,14.00
2022-11-13T09:48:36.232Z,14.00
2022-11-13T09:51:09.038Z,14.00
2022-11-13T09:53:39.905Z,14.00
2022-11-13T09:56:26.187Z,14.00
2022-11-13T09:59:02.165Z,14.00
2022-11-13T10:01:35.329Z,14.00
2022-11-13T10:04:13.236Z,14.00
2022-11-13T10:06:55.788Z,14.00
2022-11-13T10:09:30.840Z,14.00
2022-11-13T10:12:03.258Z,14.00
2022-11-13T10:14:36.029Z,14.00
2022-11-13T10:17:09.390Z,14.00
2022-11-13T10:19:44.110Z,14.00
2022-11-13T10:22:35.794Z,14.00
2022-11-13T10:25:12.666Z,14.00
2022-11-13T10:27:40.697Z,14.00
2022-11-13T10:30:16.627Z,14.00
2022-11-13T10:32:45.764Z,14.00
2022-11-13T10:35:32.581Z,14.00
2022-11-13T10:38:08.094Z,14.00
2022-11-13T10:40:38.554Z,14.00
2022-11-13T10:43:08.202Z,14.00
2022-11-13T10:45:36.031Z,14.00
2022-11-13T10:48:05.252Z,14.00
2022-11-13T10:50:35.541Z,14.00
2022-11-13T10:53:03.405Z,14.00
2022-11-13T10:55:38.962Z,14.00
2022-11-13T10:58:14.268Z,14.00
2022-11-13T11:00:44.908Z,14.00
2022-11-13T11:03:17.877Z,14.00
2022-11-13T11:05:58.247Z,14.00
2022-11-13T11:08:31.222Z,14.00
2022-11-13T11:11:19.177Z,14.00
2022-11-13T11:13:47.185Z,14.00
2022-11-13T11:16:21.278Z,14.00
2022-11-13T11:18:54.681Z,14.00
2022-11-13T11:21:28.014Z,14.00
2022-11-13T11:24:01.572Z,14.00
2022-11-13T11:26:33.983Z,14.00
2022-11-13T11:29:09.357Z,14.00
2022-11-13T11:31:40.624Z,14.00
2022-11-13T11:34:18.223Z,14.00
2022-11-13T11:36:56.254Z,14.00
2022-11-13T11:39:30.578Z,14.00
2022-11-13T11:42:08.690Z,14.00
2022-11-13T11:44:45.238Z,14.00
2022-11-13T11:47:16.875Z,14.00
2022-11-13T11:49:45.501Z,14.00
2022-11-13T11:52:30.133Z,14.00
2022-11-13T11:55:15.542Z,14.00
2022-11-13T11:57:51.083Z,14.00
2022-11-13T12:00:20.551Z,14.00
2022-11-13T12:03:05.971Z,14.00
2022-11-13T12:05:44.985Z,14.00
2022-11-13T12:08:27.329Z,14.00
2022-11-13T12:11:03.840Z,14.00
2022-11-13T12:13:33.606Z,13.90
2022-11-13T12:16:05.985Z,13.90
2022-11-13T12:18:41.608Z,14.00
2022-11-13T12:21:24.567Z,14.00
2022-11-13T12:24:15.564Z,14.00
2022-11-13T12:26:50.454Z,14.00
2022-11-13T12:29:30.945Z,14.00
2022-11-13T12:32:09.402Z,14.00
2022-11-13T12:34:42.375Z,14.00
2022-11-13T12:37:14.159Z,14.00
2022-11-13T12:39:48.626Z,14.00
2022-11-13T12:42:22.949Z,14.00
2022-11-13T12:44:58.329Z,14.00
2022-11-13T12:47:26.440Z,14.00
2022-11-13T12:50:02.231Z,14.00
2022-11-13T12:52:30.120Z,14.00
2022-11-13T12:55:25.507Z,14.00
2022-11-13T12:57:53.428Z,13.90
2022-11-13T13:00:26.578Z,14.00
2022-11-13T13:03:05.981Z,14.00
2022-11-13T13:05:54.370Z,14.00
2022-11-13T13:08:40.936Z,14.00
2022-11-13T13:11:17.136Z,13.90
2022-11-13T13:13:52.997Z,14.00
2022-11-13T13:16:26.062Z,14.00
2022-11-13T13:18:54.505Z,14.00
2022-11-13T13:21:22.641Z,14.00
2022-11-13T13:23:53.186Z,13.90
2022-11-13T13:26:25.196Z,13.90
2022-11-13T13:28:54.647Z,14.00
2022-11-13T13:31:32.101Z,14.00
2022-11-13T13:34:17.473Z,14.00
2022-11-13T13:36:52.874Z,14.00
2022-11-13T13:39:31.370Z,14.00
2022-11-13T13:42:22.831Z,14.00
2022-11-13T13:45:03.566Z,13.90
2022-11-13T13:47:33.867Z,14.00
2022-11-13T13:50:02.092Z,13.90
2022-11-13T13:52:32.560Z,14.00
2022-11-13T13:55:02.246Z,14.00
2022-11-13T13:57:32.101Z,14.00
2022-11-13T14:00:00.048Z,14.00
2022-11-13T14:02:28.163Z,14.00
2022-11-13T14:04:56.293Z,14.00
2022-11-13T14:07:26.681Z,14.00
2022-11-13T14:10:09.744Z,14.00
2022-11-13T14:12:43.430Z,13.90
2022-11-13T14:15:23.287Z,14.00
2022-11-13T14:17:51.116Z,14.00
2022-11-13T14:20:19.605Z,14.00
2022-11-13T14:22:55.093Z,14.00
2022-11-13T14:25:27.610Z,14.00
2022-11-13T14:27:56.940Z,14.00
2022-11-13T14:30:26.864Z,13.90
2022-11-13T14:32:55.781Z,14.00
2022-11-13T14:35:25.368Z,14.00
2022-11-13T14:37:55.166Z,13.90
2022-11-13T14:40:26.080Z,14.00
2022-11-13T14:42:58.564Z,14.00
2022-11-13T14:45:28.940Z,14.00
2022-11-13T14:47:58.892Z,14.00
2022-11-13T14:50:29.032Z,14.00
2022-11-13T14:52:59.323Z,14.00
2022-11-13T14:55:29.566Z,14.00
2022-11-13T14:57:58.964Z,14.00
2022-11-13T15:00:32.895Z,14.00
2022-11-13T15:03:01.810Z,14.00
2022-11-13T15:05:29.691Z,13.90
2022-11-13T15:07:58.280Z,14.00
2022-11-13T15:10:29.306Z,14.00
2022-11-13T15:12:58.504Z,14.00
2022-11-13T15:15:30.163Z,14.00
2022-11-13T15:17:58.386Z,14.00
2022-11-13T15:20:28.242Z,14.00
2022-11-13T15:22:57.969Z,14.00
2022-11-13T15:25:26.933Z,13.90
2022-11-13T15:27:54.823Z,13.90
2022-11-13T15:30:24.019Z,14.00
2022-11-13T15:32:54.084Z,14.00
2022-11-13T15:35:22.473Z,13.90
2022-11-13T15:37:50.319Z,13.90
2022-11-13T15:40:18.703Z,14.00
2022-11-13T15:42:46.865Z,14.00
2022-11-13T15:45:16.753Z,14.00
2022-11-13T15:47:47.150Z,14.00
2022-11-13T15:50:16.082Z,13.90
2022-11-13T15:52:48.326Z,14.00
2022-11-13T15:55:28.292Z,14.00
2022-11-13T15:57:57.063Z,14.00
2022-11-13T16:00:28.109Z,14.00
2022-11-13T16:02:58.399Z,14.00
2022-11-13T16:05:29.214Z,13.90
2022-11-13T16:07:57.683Z,13.90
2022-11-13T16:10:26.689Z,14.00
2022-11-13T16:12:55.365Z,14.00
2022-11-13T16:15:23.287Z,13.90
2022-11-13T16:17:54.270Z,13.90
2022-11-13T16:20:23.773Z,14.00
2022-11-13T16:22:51.941Z,14.00
2022-11-13T16:25:21.922Z,13.90
2022-11-13T16:27:49.877Z,14.00
2022-11-13T16:30:20.026Z,13.90
2022-11-13T16:32:48.031Z,13.90
2022-11-13T16:35:17.038Z,13.90
2022-11-13T16:37:46.758Z,14.00
2022-11-13T16:40:25.875Z,13.90
2022-11-13T16:43:07.446Z,14.00
2022-11-13T16:45:35.481Z,14.00
2022-11-13T16:48:32.995Z,14.00
2022-11-13T16:51:00.811Z,14.00
2022-11-13T16:53:30.447Z,14.00
2022-11-13T16:55:58.477Z,13.90
2022-11-13T16:58:26.305Z,13.90
2022-11-13T17:00:59.938Z,13.90
2022-11-13T17:03:28.471Z,14.00
2022-11-13T17:05:56.521Z,13.90
2022-11-13T17:08:24.365Z,14.00
2022-11-13T17:10:59.498Z,14.00
2022-11-13T17:13:28.271Z,14.00
2022-11-13T17:16:03.366Z,13.90
2022-11-13T17:18:35.400Z,13.90
2022-11-13T17:21:03.257Z,14.00
2022-11-13T17:23:31.368Z,14.00
2022-11-13T17:26:00.909Z,14.00
2022-11-13T17:28:28.836Z,14.00
2022-11-13T17:31:02.849Z,13.90
2022-11-13T17:33:31.473Z,14.00
2022-11-13T17:36:00.924Z,14.00
2022-11-13T17:38:29.054Z,13.90
2022-11-13T17:40:56.930Z,13.90
2022-11-13T17:43:26.406Z,13.90
2022-11-13T17:45:54.465Z,14.00
2022-11-13T17:48:22.324Z,14.00
2022-11-13T17:50:58.034Z,13.90
2022-11-13T17:53:26.180Z,14.00
2022-11-13T17:55:55.197Z,13.90
2022-11-13T17:58:23.491Z,13.90
2022-11-13T18:00:53.044Z,14.00
2022-11-13T18:03:21.090Z,13.90
2022-11-13T18:05:48.889Z,13.90
2022-11-13T18:08:16.768Z,13.90
2022-11-13T18:10:44.674Z,13.90
2022-11-13T18:13:12.563Z,13.90
2022-11-13T18:15:41.711Z,13.90
2022-11-13T18:18:10.917Z,13.90
2022-11-13T18:20:41.457Z,14.00
2022-11-13T18:23:09.291Z,14.00
2022-11-13T18:25:39.695Z,14.00
2022-11-13T18:28:07.788Z,13.90
2022-11-13T18:30:38.222Z,13.90
2022-11-13T18:33:06.411Z,13.90
2022-11-13T18:35:35.578Z,13.90
2022-11-13T18:38:03.433Z,13.90
2022-11-13T18:40:31.301Z,13.90
2022-11-13T18:42:59.176Z,14.00
2022-11-13T18:45:27.081Z,13.90
2022-11-13T18:47:54.899Z,13.90
2022-11-13T18:50:23.876Z,13.90
2022-11-13T18:52:53.090Z,13.90
2022-11-13T18:55:20.915Z,13.90
2022-11-13T18:57:48.855Z,13.90
2022-11-13T19:00:17.656Z,13.90
2022-11-13T19:02:45.552Z,13.90
2022-11-13T19:05:13.368Z,13.90
2022-11-13T19:07:41.227Z,13.90
2022-11-13T19:10:10.531Z,13.90
2022-11-13T19:12:38.357Z,13.90
2022-11-13T19:15:07.322Z,13.90
2022-11-13T19:17:35.145Z,13.90
2022-11-13T19:20:03.045Z,13.90
2022-11-13T19:22:32.129Z,13.90
2022-11-13T19:25:00.351Z,13.90
2022-11-13T19:27:29.528Z,13.90
2022-11-13T19:29:57.669Z,13.90
2022-11-13T19:32:25.506Z,13.90
2022-11-13T19:34:53.323Z,13.90
2022-11-13T19:37:21.173Z,13.90
2022-11-13T19:39:49.039Z,13.90
2022-11-13T19:42:16.884Z,13.90
2022-11-13T19:44:46.436Z,13.90
2022-11-13T19:47:14.272Z,13.90
2022-11-13T19:49:42.072Z,13.90
2022-11-13T19:52:10.046Z,13.90
2022-11-13T19:54:38.215Z,13.90
2022-11-13T19:57:06.055Z,13.90
2022-11-13T19:59:34.558Z,13.90
2022-11-13T20:02:03.735Z,13.90
2022-11-13T20:04:31.563Z,13.90
2022-11-13T20:06:59.488Z,13.90
2022-11-13T20:09:29.288Z,13.90
2022-11-13T20:11:57.151Z,13.90
2022-11-13T20:14:24.989Z,13.90
2022-11-13T20:16:52.809Z,13.90
2022-11-13T20:19:22.096Z,13.90
2022-11-13T20:21:50.055Z,13.90
2022-11-13T20:24:18.029Z,13.90
2022-11-13T20:26:45.953Z,13.90
2022-11-13T20:29:13.802Z,13.90
2022-11-13T20:31:41.645Z,13.90
2022-11-13T20:34:10.176Z,13.90
2022-11-13T20:36:39.368Z,13.90
2022-11-13T20:39:09.449Z,13.90
2022-11-13T20:41:37.843Z,13.90
2022-11-13T20:44:06.200Z,13.90
2022-11-13T20:46:34.027Z,13.90
2022-11-13T20:49:02.142Z,13.90
2022-11-13T20:51:30.304Z,13.90
2022-11-13T20:53:59.464Z,13.90
2022-11-13T20:56:27.946Z,13.90
2022-11-13T20:58:55.782Z,13.90
2022-11-13T21:01:26.080Z,13.90
2022-11-13T21:03:55.909Z,13.90
2022-11-13T21:06:25.788Z,13.90
2022-11-13T21:08:56.150Z,13.90
2022-11-13T21:11:26.463Z,13.90
2022-11-13T21:13:55.386Z,13.90
2022-11-13T21:16:23.718Z,13.90
2022-11-13T21:18:51.980Z,13.90
2022-11-13T21:21:21.279Z,13.90
2022-11-13T21:23:49.533Z,13.90
2022-11-13T21:26:17.799Z,13.90
2022-11-13T21:28:47.072Z,13.90
2022-11-13T21:31:16.469Z,13.90
2022-11-13T21:33:45.855Z,13.90
2022-11-13T21:36:15.274Z,13.90
2022-11-13T21:38:43.459Z,13.90
2022-11-13T21:41:22.887Z,13.90
2022-11-13T21:43:53.568Z,13.90
2022-11-13T21:46:22.384Z,13.90
2022-11-13T21:48:55.081Z,13.90
2022-11-13T21:51:22.968Z,13.90
2022-11-13T21:53:51.012Z,13.80
2022-11-13T21:56:18.851Z,13.90
2022-11-13T21:58:46.668Z,13.90
2022-11-13T22:01:16.482Z,13.90
2022-11-13T22:03:44.314Z,13.90
2022-11-13T22:06:16.839Z,13.90
2022-11-13T22:08:45.698Z,13.80
2022-11-13T22:11:13.860Z,13.90
2022-11-13T22:13:42.322Z,13.90
2022-11-13T22:16:12.121Z,13.90
2022-11-13T22:18:41.362Z,13.90
2022-11-13T22:21:11.706Z,13.90
2022-11-13T22:23:39.916Z,13.90
2022-11-13T22:26:09.294Z,13.90
2022-11-13T22:28:38.749Z,13.90
2022-11-13T22:31:07.626Z,13.80
2022-11-13T22:33:36.995Z,13.90
2022-11-13T22:36:08.512Z,13.90
2022-11-13T22:38:36.587Z,13.90
2022-11-13T22:41:05.908Z,13.80
2022-11-13T22:43:35.304Z,13.80
2022-11-13T22:46:04.772Z,13.80
2022-11-13T22:48:33.170Z,13.80
2022-11-13T22:51:07.286Z,13.90
2022-11-13T22:53:35.174Z,13.90
2022-11-13T22:56:05.144Z,13.80
2022-11-13T22:58:33.326Z,13.90
2022-11-13T23:01:08.366Z,13.80
2022-11-13T23:03:39.810Z,13.90
2022-11-13T23:06:10.169Z,13.80
2022-11-13T23:08:39.500Z,13.80
2022-11-13T23:11:08.493Z,13.80
2022-11-13T23:13:36.856Z,13.80
2022-11-13T23:16:04.931Z,13.80
2022-11-13T23:18:33.227Z,13.80
2022-11-13T23:21:01.199Z,13.80
2022-11-13T23:23:31.053Z,13.80
2022-11-13T23:25:59.456Z,13.80
2022-11-13T23:28:27.743Z,13.80
2022-11-13T23:30:56.317Z,13.80
2022-11-13T23:33:24.456Z,13.80
2022-11-13T23:35:52.605Z,13.80
2022-11-13T23:38:20.619Z,13.80
2022-11-13T23:40:54.244Z,13.80
2022-11-13T23:43:22.418Z,13.80
2022-11-13T23:45:50.316Z,13.80
2022-11-13T23:48:18.822Z,13.80
2022-11-13T23:50:47.201Z,13.80
2022-11-13T23:53:15.460Z,13.80
2022-11-13T23:55:43.996Z,13.80
2022-11-13T23:58:14.932Z,13.80
